Flight Track Log - Related Links

Times and Time Zones

All times are in EDT time to prevent confusion due to time zone crossing. See the SWA494 flight status page for this flight to view local times or setup timezone preferences in your user account.

Time Position Orientation Groundspeed Altitude Reporting Facility
EDT Latitude Longitude Course Direction KTS MPH feet Rate Location/Type
Mon 09:24:30 PM 29.6017 -95.3433 233° Southwest 196 226 3,900  Level Houston Center
Mon 09:25:31 PM 29.6178 -95.4294 282° West 268 308 7,200 3,541 Climbing Houston Center
Mon 09:26:32 PM 29.6369 -95.5183 284° West 285 328 11,100 3,590 Climbing Houston Center
Mon 09:27:33 PM 29.6597 -95.6244 284° West 340 391 14,500 3,610 Climbing Houston Center
Mon 09:28:35 PM 29.6828 -95.7347 284° West 352 405 18,500 3,707 Climbing Houston Center
Mon 09:29:36 PM 29.7075 -95.8494 284° West 369 425 22,100 3,541 Climbing Houston Center
Mon 09:30:37 PM 29.7378 -95.9908 284° West 380 437 25,700 2,852 Climbing Houston Center
Mon 09:31:38 PM 29.7581 -96.0886 283° West 369 425 27,900 1,131 Climbing Houston Center
Mon 09:32:39 PM 29.7817 -96.2022 283° West 366 421 28,000 49 Climbing Houston Center
Mon 09:33:41 PM 29.7908 -96.3417 274° West 368 423 28,000  Level Houston Center
Mon 09:34:42 PM 29.7997 -96.4575 275° West 367 422 28,000  Level Houston Center
Mon 09:35:43 PM 29.8086 -96.5736 275° West 364 419 28,000  Level Houston Center
Mon 09:36:44 PM 29.8169 -96.6928 275° West 374 430 28,000  Level Houston Center
Mon 09:37:45 PM 29.8250 -96.8089 275° West 368 423 28,000  Level Houston Center
Mon 09:38:46 PM 29.8333 -96.9272 275° West 372 428 28,000  Level Houston Center
Mon 09:39:48 PM 29.8425 -97.0442 275° West 372 428 28,000 -293 Level Houston Center
Mon 09:40:49 PM 29.8506 -97.1597 275° West 367 422 27,400 -1,820 Descending Houston Center
Mon 09:41:50 PM 29.8600 -97.3050 274° West 383 441 24,300 -2,656 Descending Houston Center
Mon 09:42:51 PM 29.8686 -97.4225 275° West 374 430 22,000 -2,262 Descending Houston Center
Mon 09:43:52 PM 29.8764 -97.5347 275° West 358 412 19,700 -2,311 Descending Houston Center
Mon 09:44:53 PM 29.8831 -97.6497 274° West 343 395 17,300 -2,357 Descending Houston Center
Mon 09:45:16 PM 29.8864 -97.6897 276° West 335 386 16,400 -2,170 Descending Houston Center
Mon 09:45:40 PM 29.8881 -97.7303 273° West 333 383 15,600 -2,188 Descending Houston Center
Mon 09:46:41 PM 29.8950 -97.8453 274° West 331 381 13,300 -1,636 Descending Houston Center
Mon 09:47:41 PM 29.8642 -97.9383 249° West 318 366 12,300 -947 Descending Houston Center
Mon 09:47:57 PM 29.8558 -97.9606 247° West 319 367 12,100 -885 Descending Houston Center
Mon 09:48:42 PM 29.8267 -98.0297 244° Southwest 318 366 11,400 -984 Descending Houston Center
Mon 09:48:58 PM 29.8178 -98.0511 244° Southwest 316 364 11,100 -1,100 Descending Houston Center
Mon 09:49:42 PM 29.7889 -98.1189 244° Southwest 312 359 10,300 -984 Descending Houston Center
Mon 09:49:59 PM 29.7808 -98.1383 244° Southwest 302 348 10,100 -787 Descending Houston Center
Mon 09:50:43 PM 29.7542 -98.1978 243° Southwest 270 311 9,500 -885 Descending Houston Center
Mon 09:51:00 PM 29.7453 -98.2219 247° West 270 311 9,200 -1,672 Descending Houston Center
Mon 09:51:44 PM 29.7369 -98.2817 261° West 269 310 7,800 -1,967 Descending Houston Center
Mon 09:52:01 PM 29.7344 -98.3086 264° West 276 318 7,200 -1,900 Descending Houston Center
Mon 09:52:44 PM 29.7281 -98.3669 263° West 272 313 5,900 -1,770 Descending Houston Center
Mon 09:53:02 PM 29.7250 -98.3928 262° West 268 308 5,400 -2,164 Descending Houston Center
Mon 09:53:45 PM 29.7194 -98.4569 264° West 262 302 3,700 -1,770 Descending Houston Center
Mon 09:54:03 PM 29.7194 -98.4764 270° West 271 312 3,600 -600 Descending Houston Center
Mon 09:54:45 PM 29.7142 -98.5369 264° West 251 289 3,100 -590 Descending Houston Center
Mon 09:55:04 PM 29.7019 -98.5533 229° Southwest 236 272 3,000 -98 Descending Houston Center
Mon 09:55:46 PM 29.6767 -98.5847 227° Southwest 175 201 3,000  Level Houston Center
Mon 09:56:05 PM 29.6653 -98.5939 215° Southwest 185 213 3,000  Level Houston Center
Mon 09:56:53 PM 29.6381 -98.5992 190° South 135 155 3,000 -167 Level Houston Center
Mon 09:57:53 PM 29.6058 -98.5692 141° Southeast 139 160 2,700 -496 Descending Houston Center
Mon 09:58:54 PM 29.5819 -98.5383 132° Southeast 129 148 2,000 -632 Descending Houston Center
Mon 09:59:09 PM 29.5775 -98.5292 119° Southeast 129 148 1,900 -600 Descending Houston Center
Mon 09:59:54 PM 29.5606 -98.5097 135° Southeast 119 137 1,400 -689 Descending Houston Center
Mon 10:00:10 PM 29.5556 -98.5003 121° Southeast 122 140 1,200 -468 Descending Houston Center
Mon 10:01:11 PM 29.5344 -98.4728 131° Southeast 122 140 800 -393 Descending Houston Center

Login

Don't have an account? Register now (free) for customized features, flight alerts, and more!